createdAt,value
2022-07-31T00:00:44.703Z,18.67
2022-07-31T00:01:44.844Z,18.73
2022-07-31T00:02:45.083Z,18.64
2022-07-31T00:03:45.515Z,18.7
2022-07-31T00:04:45.974Z,18.67
2022-07-31T00:05:47.749Z,18.61
2022-07-31T00:06:46.941Z,18.63
2022-07-31T00:07:47.860Z,18.67
2022-07-31T00:08:49.055Z,18.66
2022-07-31T00:09:59.852Z,18.57
2022-07-31T00:10:49.752Z,18.57
2022-07-31T00:11:49.705Z,18.68
2022-07-31T00:12:50.211Z,18.64
2022-07-31T00:14:04.402Z,18.57
2022-07-31T00:14:50.896Z,18.6
2022-07-31T00:15:51.389Z,18.66
2022-07-31T00:16:51.728Z,18.61
2022-07-31T00:17:53.243Z,18.64
2022-07-31T00:18:53.877Z,18.57
2022-07-31T00:19:54.813Z,18.57
2022-07-31T00:20:56.022Z,18.49
2022-07-31T00:21:56.329Z,18.48
2022-07-31T00:22:56.309Z,18.52
2022-07-31T00:23:58.481Z,18.53
2022-07-31T00:24:57.397Z,18.51
2022-07-31T00:25:58.622Z,18.43
2022-07-31T00:26:59.746Z,18.52
2022-07-31T00:27:59.720Z,18.49
2022-07-31T00:29:00.937Z,18.45
2022-07-31T00:30:01.199Z,18.48
2022-07-31T00:31:01.695Z,18.39
2022-07-31T00:32:01.424Z,18.43
2022-07-31T00:33:02.915Z,18.42
2022-07-31T00:34:02.853Z,18.53
2022-07-31T00:35:04.047Z,18.49
2022-07-31T00:36:05.069Z,18.37
2022-07-31T00:37:06.452Z,18.52
2022-07-31T00:38:32.058Z,18.46
2022-07-31T00:39:07.281Z,18.49
2022-07-31T00:40:07.774Z,18.42
2022-07-31T00:41:08.688Z,18.42
2022-07-31T00:42:09.091Z,18.46
2022-07-31T00:43:09.708Z,18.46
2022-07-31T00:44:18.750Z,18.43
2022-07-31T00:45:14.179Z,18.41
2022-07-31T00:46:23.332Z,18.36
2022-07-31T00:47:15.765Z,18.48
2022-07-31T00:48:13.975Z,18.39
2022-07-31T00:49:15.098Z,18.41
2022-07-31T00:50:15.513Z,18.39
2022-07-31T00:51:16.156Z,18.36
2022-07-31T00:52:16.606Z,18.31
2022-07-31T00:53:17.532Z,18.42
2022-07-31T00:54:29.006Z,18.34
2022-07-31T00:55:18.928Z,18.45
2022-07-31T00:56:19.129Z,18.33
2022-07-31T00:57:20.048Z,18.33
2022-07-31T00:58:20.333Z,18.33
2022-07-31T00:59:25.523Z,18.41
2022-07-31T01:00:21.439Z,18.39
2022-07-31T01:01:22.831Z,18.33
2022-07-31T01:02:23.129Z,18.33
2022-07-31T01:03:24.346Z,18.28
2022-07-31T01:04:25.794Z,18.36
2022-07-31T01:05:25.449Z,18.27
2022-07-31T01:06:25.373Z,18.31
2022-07-31T01:07:25.733Z,18.3
2022-07-31T01:08:25.648Z,18.31
2022-07-31T01:09:26.851Z,18.31
2022-07-31T01:10:28.066Z,18.24
2022-07-31T01:11:27.700Z,18.26
2022-07-31T01:12:28.478Z,18.27
2022-07-31T01:13:28.690Z,18.3
2022-07-31T01:14:29.589Z,18.33
2022-07-31T01:15:30.872Z,18.27
2022-07-31T01:16:31.069Z,18.26
2022-07-31T01:17:31.692Z,18.34
2022-07-31T01:18:32.910Z,18.24
2022-07-31T01:19:48.504Z,18.19
2022-07-31T01:28:38.034Z,18.27
2022-07-31T01:29:38.258Z,18.18
2022-07-31T01:30:39.159Z,18.23
2022-07-31T01:31:39.605Z,18.23
2022-07-31T01:32:40.021Z,18.18
2022-07-31T01:33:43.283Z,18.15
2022-07-31T01:34:41.180Z,18.13
2022-07-31T01:35:42.049Z,18.18
2022-07-31T01:36:42.099Z,18.16
2022-07-31T01:37:42.732Z,18.21
2022-07-31T01:38:45.971Z,18.24
2022-07-31T01:39:43.871Z,18.21
2022-07-31T01:40:44.487Z,18.26
2022-07-31T01:41:45.408Z,18.27
2022-07-31T01:42:46.261Z,18.24
2022-07-31T01:43:46.481Z,18.3
2022-07-31T01:44:46.406Z,18.23
2022-07-31T01:45:48.295Z,18.3
2022-07-31T01:46:47.462Z,18.26
2022-07-31T01:47:47.657Z,18.28
2022-07-31T01:48:48.377Z,18.33
2022-07-31T01:49:48.760Z,18.33
2022-07-31T01:50:49.773Z,18.24
2022-07-31T01:51:49.996Z,18.34
2022-07-31T01:52:50.487Z,18.28
2022-07-31T01:53:51.109Z,18.28
2022-07-31T01:54:52.024Z,18.27
2022-07-31T01:56:08.327Z,18.3
2022-07-31T01:56:52.547Z,18.31
2022-07-31T01:57:53.043Z,18.3
2022-07-31T01:58:53.243Z,18.27
2022-07-31T01:59:55.320Z,18.31
2022-07-31T02:00:54.017Z,18.36
2022-07-31T02:01:56.635Z,18.27
2022-07-31T02:02:55.040Z,18.34
2022-07-31T02:04:01.828Z,18.28
2022-07-31T02:04:54.794Z,18.27
2022-07-31T02:05:55.692Z,18.3
2022-07-31T02:06:55.844Z,18.3
2022-07-31T02:07:57.040Z,18.28
2022-07-31T02:08:57.710Z,18.3
2022-07-31T02:10:04.508Z,18.33
2022-07-31T02:10:59.421Z,18.27
2022-07-31T02:12:01.833Z,18.27
2022-07-31T02:13:01.338Z,18.28
2022-07-31T02:14:02.032Z,18.24
2022-07-31T02:15:01.658Z,18.27
2022-07-31T02:16:05.212Z,18.3
2022-07-31T02:17:03.417Z,18.33
2022-07-31T02:18:04.213Z,18.31
2022-07-31T02:19:04.717Z,18.3
2022-07-31T02:20:06.114Z,18.36
2022-07-31T02:21:05.312Z,18.27
2022-07-31T02:22:06.154Z,18.28
2022-07-31T02:23:06.322Z,18.39
2022-07-31T02:24:06.243Z,18.28
2022-07-31T02:25:06.850Z,18.39
2022-07-31T02:26:06.771Z,18.41
2022-07-31T02:27:59.358Z,18.3
2022-07-31T02:28:16.023Z,18.42
2022-07-31T02:29:26.106Z,18.31
2022-07-31T02:30:17.603Z,18.42
2022-07-31T02:31:17.976Z,18.27
2022-07-31T02:32:18.154Z,18.33
2022-07-31T02:33:18.598Z,18.3
2022-07-31T02:34:19.197Z,18.3
2022-07-31T02:35:19.895Z,18.36
2022-07-31T02:36:20.090Z,18.33
2022-07-31T02:37:20.007Z,18.39
2022-07-31T02:38:28.596Z,18.37
2022-07-31T02:39:20.799Z,18.41
2022-07-31T02:40:21.185Z,18.28
2022-07-31T02:41:22.078Z,18.34
2022-07-31T02:42:23.036Z,18.31
2022-07-31T02:43:24.333Z,18.28
2022-07-31T02:44:33.016Z,18.39
2022-07-31T02:45:25.504Z,18.28
2022-07-31T02:46:26.219Z,18.28
2022-07-31T02:47:26.412Z,18.42
2022-07-31T02:48:26.920Z,18.41
2022-07-31T02:49:27.095Z,18.39
2022-07-31T02:50:27.387Z,18.36
2022-07-31T02:51:28.067Z,18.36
2022-07-31T02:52:27.791Z,18.3
2022-07-31T02:53:28.811Z,18.45
2022-07-31T02:54:29.428Z,18.39
2022-07-31T02:55:30.744Z,18.42
2022-07-31T02:56:33.227Z,18.42
2022-07-31T02:57:31.847Z,18.27
2022-07-31T02:58:33.192Z,18.41
2022-07-31T02:59:33.086Z,18.36
2022-07-31T03:00:33.616Z,18.31
2022-07-31T03:01:33.880Z,18.42
2022-07-31T03:02:43.745Z,18.28
2022-07-31T03:03:35.045Z,18.39
2022-07-31T03:04:36.013Z,18.27
2022-07-31T03:05:35.933Z,18.36
2022-07-31T03:06:37.128Z,18.36
2022-07-31T03:07:37.618Z,18.33
2022-07-31T03:08:38.145Z,18.28
2022-07-31T03:09:37.491Z,18.33
2022-07-31T03:10:39.026Z,18.37
2022-07-31T03:11:38.947Z,18.37
2022-07-31T03:12:40.145Z,18.3
2022-07-31T03:13:40.361Z,18.39
2022-07-31T03:14:41.959Z,18.26
2022-07-31T03:15:51.026Z,18.27
2022-07-31T03:16:42.328Z,18.42
2022-07-31T03:17:46.880Z,18.42
2022-07-31T03:18:43.363Z,18.34
2022-07-31T03:19:43.555Z,18.34
2022-07-31T03:20:43.439Z,18.33
2022-07-31T03:21:44.935Z,18.27
2022-07-31T03:22:45.863Z,18.27
2022-07-31T03:23:46.797Z,18.31
2022-07-31T03:24:47.903Z,18.28
2022-07-31T03:25:47.821Z,18.3
2022-07-31T03:26:48.043Z,18.26
2022-07-31T03:27:58.319Z,18.31
2022-07-31T03:28:49.815Z,18.28
2022-07-31T03:29:49.722Z,18.27
2022-07-31T03:30:51.579Z,18.26
2022-07-31T03:31:51.491Z,18.27
2022-07-31T03:32:52.095Z,18.31
2022-07-31T03:33:52.818Z,18.27
2022-07-31T03:34:53.739Z,18.27
2022-07-31T03:35:54.230Z,18.28
2022-07-31T03:36:53.853Z,18.28
2022-07-31T03:37:55.074Z,18.27
2022-07-31T03:38:56.789Z,18.33
2022-07-31T03:39:56.687Z,18.34
2022-07-31T03:40:56.604Z,18.27
2022-07-31T03:41:57.226Z,18.23
2022-07-31T03:42:58.443Z,18.27
2022-07-31T03:43:58.992Z,18.42
2022-07-31T03:44:59.314Z,18.37
2022-07-31T03:46:00.236Z,18.3
2022-07-31T03:47:01.134Z,18.3
2022-07-31T03:48:01.328Z,18.42
2022-07-31T03:49:02.434Z,18.42
2022-07-31T03:50:02.617Z,18.43
2022-07-31T03:51:03.817Z,18.43
2022-07-31T03:52:12.142Z,18.3
2022-07-31T03:53:04.673Z,18.45
2022-07-31T03:54:05.532Z,18.36
2022-07-31T03:55:05.736Z,18.45
2022-07-31T03:56:06.658Z,18.39
2022-07-31T03:57:07.161Z,18.33
2022-07-31T03:58:07.704Z,18.36
2022-07-31T03:59:09.608Z,18.39
2022-07-31T04:00:17.805Z,18.39
2022-07-31T04:01:13.542Z,18.42
2022-07-31T04:02:19.564Z,18.41
2022-07-31T04:03:11.834Z,18.42
2022-07-31T04:04:11.558Z,18.36
2022-07-31T04:05:15.625Z,18.39
2022-07-31T04:06:13.771Z,18.41
2022-07-31T04:07:12.671Z,18.42
2022-07-31T04:08:13.772Z,18.39
2022-07-31T04:09:24.157Z,18.43
2022-07-31T04:10:14.793Z,18.42
2022-07-31T04:11:15.707Z,18.41
2022-07-31T04:12:15.620Z,18.39
2022-07-31T04:13:15.843Z,18.41
2022-07-31T04:14:16.861Z,18.34
2022-07-31T04:15:17.899Z,18.41
2022-07-31T04:16:19.100Z,18.28
2022-07-31T04:17:19.300Z,18.36
2022-07-31T04:18:19.574Z,18.37
2022-07-31T04:19:20.799Z,18.41
2022-07-31T04:20:20.713Z,18.39
2022-07-31T04:21:21.214Z,18.48
2022-07-31T04:22:21.109Z,18.33
2022-07-31T04:23:22.775Z,18.39
2022-07-31T04:24:28.038Z,18.34
2022-07-31T04:25:27.977Z,18.36
2022-07-31T04:26:32.071Z,18.41
2022-07-31T04:27:29.271Z,18.36
2022-07-31T04:28:30.077Z,18.41
2022-07-31T04:29:30.577Z,18.39
2022-07-31T04:30:30.501Z,18.39
2022-07-31T04:31:31.118Z,18.37
2022-07-31T04:32:32.043Z,18.34
2022-07-31T04:33:33.257Z,18.45
2022-07-31T04:34:34.227Z,18.37
2022-07-31T04:35:34.727Z,18.37
2022-07-31T04:36:36.704Z,18.46
2022-07-31T04:37:35.603Z,18.41
2022-07-31T04:38:35.987Z,18.46
2022-07-31T04:39:35.931Z,18.51
2022-07-31T04:40:36.556Z,18.49
2022-07-31T04:41:36.771Z,18.41
2022-07-31T04:42:38.512Z,18.48
2022-07-31T04:43:37.719Z,18.41
2022-07-31T04:44:38.010Z,18.45
2022-07-31T04:45:37.911Z,18.49
2022-07-31T04:46:38.833Z,18.41
2022-07-31T04:47:39.059Z,18.42
2022-07-31T04:48:41.577Z,18.49
2022-07-31T04:49:40.622Z,18.49
2022-07-31T04:50:41.113Z,18.48
2022-07-31T04:51:42.028Z,18.49
2022-07-31T04:52:42.230Z,18.49
2022-07-31T04:53:44.536Z,18.46
2022-07-31T04:54:42.840Z,18.51
2022-07-31T04:55:42.768Z,18.55
2022-07-31T04:56:43.983Z,18.52
2022-07-31T04:57:44.481Z,18.53
2022-07-31T04:58:45.399Z,18.51
2022-07-31T05:00:05.367Z,18.51
2022-07-31T05:00:46.271Z,18.57
2022-07-31T05:01:47.638Z,18.52
2022-07-31T05:02:48.405Z,18.6
2022-07-31T05:03:48.908Z,18.63
2022-07-31T05:04:57.522Z,18.66
2022-07-31T05:05:49.537Z,18.63
2022-07-31T05:06:50.159Z,18.71
2022-07-31T05:07:50.386Z,18.76
2022-07-31T05:08:50.735Z,18.7
2022-07-31T05:09:52.010Z,18.71
2022-07-31T05:10:52.216Z,18.76
2022-07-31T05:11:52.435Z,18.78
2022-07-31T05:12:52.927Z,18.78
2022-07-31T05:13:53.155Z,18.73
2022-07-31T05:14:54.165Z,18.83
2022-07-31T05:15:55.271Z,18.74
2022-07-31T05:16:55.474Z,18.74
2022-07-31T05:17:57.054Z,18.73
2022-07-31T05:18:56.339Z,18.83
2022-07-31T05:19:56.813Z,18.79
2022-07-31T05:20:57.736Z,18.92
2022-07-31T05:22:03.037Z,18.82
2022-07-31T05:22:59.241Z,18.83
2022-07-31T05:23:59.348Z,18.83
2022-07-31T05:25:00.029Z,18.91
2022-07-31T05:26:00.935Z,18.96
2022-07-31T05:27:00.858Z,18.96
2022-07-31T05:28:02.221Z,19.01
2022-07-31T05:29:03.951Z,19.09
2022-07-31T05:30:03.459Z,19.11
2022-07-31T05:31:03.669Z,19.07
2022-07-31T05:32:16.912Z,19.15
2022-07-31T05:33:04.470Z,19.15
2022-07-31T05:34:05.085Z,19.07
2022-07-31T05:35:06.092Z,19.05
2022-07-31T05:36:06.868Z,19.08
2022-07-31T05:37:07.364Z,19.07
2022-07-31T05:38:12.282Z,19.07
2022-07-31T05:39:07.490Z,19.05
2022-07-31T05:40:08.685Z,19.09
2022-07-31T05:41:09.008Z,19.07
2022-07-31T05:42:10.239Z,19.12
2022-07-31T05:43:10.138Z,19.09
2022-07-31T05:44:10.640Z,19.07
2022-07-31T05:45:10.671Z,19.09
2022-07-31T05:46:11.866Z,19.09
2022-07-31T05:47:12.092Z,19.09
2022-07-31T05:48:13.018Z,19.11
2022-07-31T05:49:13.851Z,19.07
2022-07-31T05:50:14.036Z,19.09
2022-07-31T05:51:14.259Z,19.07
2022-07-31T05:52:14.600Z,19
2022-07-31T05:53:15.499Z,19.01
2022-07-31T05:54:16.701Z,19.01
2022-07-31T05:55:16.707Z,18.98
2022-07-31T05:56:17.323Z,18.92
2022-07-31T05:57:38.955Z,18.98
2022-07-31T05:58:22.137Z,18.97
2022-07-31T05:59:19.055Z,18.97
2022-07-31T06:00:20.459Z,18.96
2022-07-31T06:01:20.321Z,18.97
2022-07-31T06:02:19.863Z,18.86
2022-07-31T06:03:20.033Z,18.92
2022-07-31T06:04:20.651Z,18.94
2022-07-31T06:05:21.025Z,18.86
2022-07-31T06:06:23.029Z,18.86
2022-07-31T06:07:22.535Z,18.94
2022-07-31T06:08:23.247Z,18.91
2022-07-31T06:09:23.591Z,18.81
2022-07-31T06:10:23.813Z,18.92
2022-07-31T06:11:24.157Z,18.94
2022-07-31T06:12:25.379Z,18.92
2022-07-31T06:13:26.503Z,18.91
2022-07-31T06:14:26.717Z,18.78
2022-07-31T06:15:27.436Z,18.89
2022-07-31T06:16:28.717Z,18.91
2022-07-31T06:17:45.048Z,18.89
2022-07-31T06:18:28.620Z,18.94
2022-07-31T06:19:30.460Z,18.89
2022-07-31T06:20:29.950Z,18.85
2022-07-31T06:21:36.053Z,18.89
2022-07-31T06:22:31.297Z,18.92
2022-07-31T06:23:38.760Z,18.91
2022-07-31T06:24:34.181Z,18.89
2022-07-31T06:25:45.644Z,18.89
2022-07-31T06:26:35.481Z,18.89
2022-07-31T06:27:41.663Z,18.88
2022-07-31T06:28:53.419Z,18.89
2022-07-31T06:29:47.927Z,18.88
2022-07-31T06:30:36.121Z,18.96
2022-07-31T06:31:36.321Z,18.96
2022-07-31T06:32:36.953Z,18.98
2022-07-31T06:33:49.576Z,18.98
2022-07-31T06:34:38.209Z,19.07
2022-07-31T06:35:39.216Z,19.05
2022-07-31T06:36:40.028Z,18.96
2022-07-31T06:37:40.228Z,19.07
2022-07-31T06:38:40.851Z,19.12
2022-07-31T06:40:00.888Z,19.11
2022-07-31T06:40:42.192Z,19.19
2022-07-31T06:41:42.758Z,19.22
2022-07-31T06:42:43.383Z,19.17
2022-07-31T06:43:44.285Z,19.19
2022-07-31T06:44:52.068Z,19.17
2022-07-31T06:45:59.272Z,19.23
2022-07-31T06:46:59.187Z,19.24
2022-07-31T06:48:00.509Z,19.26
2022-07-31T06:49:00.420Z,19.24
2022-07-31T06:50:01.208Z,19.29
2022-07-31T06:51:33.923Z,19.27
2022-07-31T06:52:06.560Z,19.32
2022-07-31T06:53:02.329Z,19.29
2022-07-31T06:54:03.528Z,19.26
2022-07-31T06:55:03.729Z,19.23
2022-07-31T06:56:04.183Z,19.3
2022-07-31T06:57:05.444Z,19.34
2022-07-31T06:58:05.946Z,19.35
2022-07-31T06:59:06.171Z,19.27
2022-07-31T07:00:20.990Z,19.32
2022-07-31T07:01:08.278Z,19.3
2022-07-31T07:02:09.948Z,19.37
2022-07-31T07:03:08.863Z,19.39
2022-07-31T07:04:09.785Z,19.41
2022-07-31T07:05:12.898Z,19.44
2022-07-31T07:06:11.480Z,19.48
2022-07-31T07:07:12.404Z,19.42
2022-07-31T07:08:12.893Z,19.39
2022-07-31T07:09:13.819Z,19.45
2022-07-31T07:10:14.013Z,19.49
2022-07-31T07:11:18.285Z,19.49
2022-07-31T07:12:22.649Z,19.55
2022-07-31T07:13:16.367Z,19.52
2022-07-31T07:14:17.230Z,19.53
2022-07-31T07:15:17.248Z,19.55
2022-07-31T07:16:18.437Z,19.56
2022-07-31T07:17:18.835Z,19.49
2022-07-31T07:18:18.684Z,19.49
2022-07-31T07:19:19.587Z,19.53
2022-07-31T07:20:20.086Z,19.55
2022-07-31T07:21:20.290Z,19.52
2022-07-31T07:22:32.371Z,19.66
2022-07-31T07:23:21.861Z,19.64
2022-07-31T07:24:22.481Z,19.63
2022-07-31T07:26:23.902Z,19.63
2022-07-31T07:27:25.121Z,19.62
2022-07-31T07:28:36.880Z,19.57
2022-07-31T07:29:27.330Z,19.62
2022-07-31T07:30:26.932Z,19.64
2022-07-31T07:31:28.129Z,19.67
2022-07-31T07:32:28.046Z,19.63
2022-07-31T07:33:47.455Z,19.71
2022-07-31T07:34:29.675Z,19.7
2022-07-31T07:35:34.351Z,19.63
2022-07-31T07:36:30.913Z,19.77
2022-07-31T07:37:39.321Z,19.79
2022-07-31T07:38:35.956Z,19.78
2022-07-31T07:39:31.679Z,19.71
2022-07-31T07:40:32.188Z,19.75
2022-07-31T07:41:32.122Z,19.75
2022-07-31T07:42:33.342Z,19.79
2022-07-31T07:43:33.963Z,19.87
2022-07-31T07:45:35.331Z,19.92
2022-07-31T07:46:36.359Z,19.87
2022-07-31T07:48:10.845Z,19.94
2022-07-31T07:50:37.620Z,19.97
2022-07-31T07:52:44.127Z,20.07
2022-07-31T07:53:40.324Z,20.1
2022-07-31T07:54:40.237Z,20.15
2022-07-31T07:55:43.509Z,20.17
2022-07-31T07:56:42.221Z,20.21
2022-07-31T07:57:42.436Z,20.14
2022-07-31T07:58:43.362Z,20.12
2022-07-31T07:59:43.865Z,20.21
2022-07-31T08:00:44.447Z,20.26
2022-07-31T08:01:44.342Z,20.26
2022-07-31T08:03:51.970Z,20.24
2022-07-31T08:04:08.816Z,20.29
2022-07-31T08:05:10.057Z,20.36
2022-07-31T08:06:10.630Z,20.37
2022-07-31T08:07:10.936Z,20.42
2022-07-31T08:08:11.532Z,20.39
2022-07-31T08:09:12.545Z,20.42
2022-07-31T08:10:15.954Z,20.56
2022-07-31T08:11:18.259Z,20.5
2022-07-31T08:12:15.422Z,20.58
2022-07-31T08:13:14.386Z,20.59
2022-07-31T08:14:15.802Z,20.53
2022-07-31T08:15:16.239Z,20.55
2022-07-31T08:16:16.401Z,20.64
2022-07-31T08:17:18.424Z,20.66
2022-07-31T08:18:18.086Z,20.7
2022-07-31T08:19:19.743Z,20.74
2022-07-31T08:20:22.131Z,20.77
2022-07-31T08:22:19.205Z,20.88
2022-07-31T08:23:24.021Z,20.96
2022-07-31T08:24:20.253Z,20.92
2022-07-31T08:25:22.547Z,20.95
2022-07-31T08:26:21.702Z,21.07
2022-07-31T08:27:22.051Z,21.15
2022-07-31T08:28:26.267Z,21.25
2022-07-31T08:29:37.598Z,21.33
2022-07-31T08:30:31.262Z,21.41
2022-07-31T08:31:23.276Z,21.45
2022-07-31T08:32:24.482Z,21.65
2022-07-31T08:33:25.107Z,21.66
2022-07-31T08:34:42.572Z,21.89
2022-07-31T08:35:26.511Z,21.85
2022-07-31T08:36:27.423Z,22
2022-07-31T08:38:11.261Z,22.19
2022-07-31T08:39:21.621Z,22.44
2022-07-31T08:40:13.253Z,22.46
2022-07-31T08:41:13.656Z,22.58
2022-07-31T08:42:13.868Z,22.61
2022-07-31T08:44:06.400Z,22.67
2022-07-31T08:44:32.375Z,22.71
2022-07-31T08:45:23.599Z,22.8
2022-07-31T08:46:23.721Z,22.86
2022-07-31T08:47:24.952Z,22.95
2022-07-31T08:48:24.992Z,23.06
2022-07-31T08:49:26.419Z,23.08
2022-07-31T08:50:26.585Z,23.16
2022-07-31T08:51:26.929Z,23.32
2022-07-31T08:52:27.561Z,23.36
2022-07-31T08:53:28.114Z,23.26
2022-07-31T08:54:28.331Z,23.47
2022-07-31T08:56:01.344Z,23.48
2022-07-31T08:56:29.850Z,23.58
2022-07-31T08:57:30.055Z,23.62
2022-07-31T08:58:30.761Z,23.67
2022-07-31T09:00:31.007Z,23.88
2022-07-31T09:01:32.273Z,23.99
2022-07-31T09:02:32.432Z,24.25
2022-07-31T09:03:32.659Z,24.32
2022-07-31T09:04:33.875Z,24.36
2022-07-31T09:05:48.494Z,24.53
2022-07-31T09:06:35.708Z,24.48
2022-07-31T09:07:35.919Z,24.69
2022-07-31T09:08:35.978Z,24.68
2022-07-31T09:09:57.795Z,24.63
2022-07-31T09:10:37.697Z,24.68
2022-07-31T09:11:38.424Z,24.78
2022-07-31T09:12:39.939Z,24.89
2022-07-31T09:13:39.035Z,24.82
2022-07-31T09:14:39.666Z,24.96
2022-07-31T09:15:40.602Z,24.96
2022-07-31T09:16:41.536Z,24.96
2022-07-31T09:17:54.501Z,24.86
2022-07-31T09:18:41.865Z,24.84
2022-07-31T09:19:59.283Z,24.82
2022-07-31T09:20:43.883Z,24.97
2022-07-31T09:21:44.809Z,25.19
2022-07-31T09:22:45.097Z,25.56
2022-07-31T09:23:45.318Z,25.8
2022-07-31T09:24:46.531Z,26.06
2022-07-31T09:25:47.033Z,26.08
2022-07-31T09:26:47.540Z,26.08
2022-07-31T09:27:47.767Z,26.15
2022-07-31T09:28:48.556Z,26.13
2022-07-31T09:29:49.493Z,26.11
2022-07-31T09:31:02.491Z,26.74
2022-07-31T09:31:50.451Z,26.97
2022-07-31T09:32:51.159Z,27.29
2022-07-31T09:33:52.256Z,27.81
2022-07-31T09:34:52.764Z,28.13
2022-07-31T09:35:52.690Z,28.19
2022-07-31T09:36:53.197Z,28.38
2022-07-31T09:37:53.497Z,28.65
2022-07-31T09:38:55.059Z,28.82
2022-07-31T09:39:58.805Z,29.1
2022-07-31T09:41:26.877Z,29.46
2022-07-31T09:42:29.383Z,29.62
2022-07-31T09:43:32.264Z,29.61
2022-07-31T09:44:32.065Z,29.94
2022-07-31T09:45:32.005Z,29.99
2022-07-31T09:46:32.947Z,29.96
2022-07-31T09:47:32.895Z,29.68
2022-07-31T09:48:35.347Z,29.43
2022-07-31T09:49:34.481Z,29.27
2022-07-31T09:50:34.865Z,29.02
2022-07-31T09:51:35.364Z,28.77
2022-07-31T09:52:35.025Z,28.56
2022-07-31T09:53:43.312Z,28.34
2022-07-31T09:54:36.733Z,28.09
2022-07-31T09:55:37.956Z,28.03
2022-07-31T09:56:38.600Z,27.83
2022-07-31T09:57:50.303Z,27.71
2022-07-31T09:58:40.212Z,27.53
2022-07-31T09:59:41.519Z,27.52
2022-07-31T10:00:41.955Z,27.43
2022-07-31T10:01:42.762Z,27.45
2022-07-31T10:02:42.988Z,27.48
2022-07-31T10:03:42.922Z,27.28
2022-07-31T10:04:43.856Z,27.19
2022-07-31T10:05:44.094Z,27.11
2022-07-31T10:06:45.023Z,27
2022-07-31T10:07:44.934Z,27.03
2022-07-31T10:08:45.445Z,26.92
2022-07-31T10:09:45.843Z,26.92
2022-07-31T10:10:46.354Z,26.74
2022-07-31T10:11:46.860Z,26.67
2022-07-31T10:12:47.090Z,26.76
2022-07-31T10:13:48.201Z,26.7
2022-07-31T10:14:47.808Z,26.66
2022-07-31T10:15:48.450Z,26.59
2022-07-31T10:16:50.091Z,26.53
2022-07-31T10:17:50.867Z,26.41
2022-07-31T10:18:51.075Z,26.45
2022-07-31T10:19:53.067Z,26.31
2022-07-31T10:20:52.581Z,26.33
2022-07-31T10:21:53.178Z,26.26
2022-07-31T10:22:53.132Z,26.16
2022-07-31T10:23:54.065Z,26.1
2022-07-31T10:24:53.771Z,26.01
2022-07-31T10:25:59.893Z,25.89
2022-07-31T10:27:09.978Z,25.83
2022-07-31T10:27:56.361Z,25.83
2022-07-31T10:28:56.556Z,25.66
2022-07-31T10:29:57.564Z,25.66
2022-07-31T10:30:58.493Z,25.56
2022-07-31T10:31:59.811Z,25.61
2022-07-31T10:32:59.469Z,25.52
2022-07-31T10:34:00.116Z,25.43
2022-07-31T10:35:00.619Z,25.34
2022-07-31T10:36:01.585Z,25.29
2022-07-31T10:37:01.228Z,25.18
2022-07-31T10:38:00.670Z,25.22
2022-07-31T10:39:01.590Z,25.15
2022-07-31T10:40:02.273Z,25.11
2022-07-31T10:41:01.906Z,25.12
2022-07-31T10:42:03.403Z,25.04
2022-07-31T10:43:03.482Z,24.97
2022-07-31T10:44:04.385Z,24.84
2022-07-31T10:45:04.590Z,24.88
2022-07-31T10:46:04.791Z,24.77
2022-07-31T10:47:05.994Z,24.79
2022-07-31T10:48:06.137Z,24.74
2022-07-31T10:49:14.591Z,24.69
2022-07-31T10:50:08.362Z,24.75
2022-07-31T10:51:08.723Z,24.69
2022-07-31T10:52:08.654Z,24.62
2022-07-31T10:53:09.572Z,24.69
2022-07-31T10:54:11.236Z,24.69
2022-07-31T10:55:13.362Z,24.69
2022-07-31T10:56:11.898Z,24.69
2022-07-31T10:57:13.539Z,24.75
2022-07-31T10:58:13.765Z,24.86
2022-07-31T10:59:18.125Z,24.81
2022-07-31T11:00:14.830Z,24.89
2022-07-31T11:01:18.162Z,24.84
2022-07-31T11:02:16.056Z,25
2022-07-31T11:03:17.744Z,25.07
2022-07-31T11:04:16.251Z,25.15
2022-07-31T11:05:16.238Z,25.33
2022-07-31T11:06:17.749Z,25.34
2022-07-31T11:07:17.798Z,25.52
2022-07-31T11:08:18.730Z,25.55
2022-07-31T11:09:19.132Z,25.68
2022-07-31T11:10:19.142Z,25.74
2022-07-31T11:11:26.138Z,25.88
2022-07-31T11:12:21.449Z,25.98
2022-07-31T11:13:21.380Z,26.11
2022-07-31T11:14:22.273Z,26.45
2022-07-31T11:15:23.196Z,26.46
2022-07-31T11:16:24.135Z,26.56
2022-07-31T11:18:34.515Z,26.53
2022-07-31T11:18:51.551Z,26.55
2022-07-31T11:19:52.757Z,26.44
2022-07-31T11:20:53.474Z,26.41
2022-07-31T11:21:54.045Z,26.45
2022-07-31T11:22:54.686Z,26.48
2022-07-31T11:24:12.144Z,26.49
2022-07-31T11:24:56.058Z,26.56
2022-07-31T11:25:56.398Z,26.59
2022-07-31T11:26:56.754Z,26.61
2022-07-31T11:27:57.540Z,26.73
2022-07-31T11:30:04.011Z,26.73
2022-07-31T11:30:25.783Z,26.76
2022-07-31T11:31:26.104Z,26.79
2022-07-31T11:32:31.373Z,26.74
2022-07-31T11:33:26.590Z,26.78
2022-07-31T11:34:27.150Z,26.78
2022-07-31T11:35:27.382Z,26.76
2022-07-31T11:36:28.597Z,26.67
2022-07-31T11:37:57.232Z,26.53
2022-07-31T11:38:31.931Z,26.46
2022-07-31T11:39:52.517Z,26.37
2022-07-31T11:40:33.072Z,26.26
2022-07-31T11:41:45.583Z,26.16
2022-07-31T11:42:36.909Z,26.15
2022-07-31T11:43:34.311Z,26.13
2022-07-31T11:44:34.525Z,26.03
2022-07-31T11:45:40.237Z,26.04
2022-07-31T11:46:35.580Z,25.93
2022-07-31T11:48:19.749Z,25.99
2022-07-31T11:48:51.442Z,26.01
2022-07-31T11:49:55.236Z,26.08
2022-07-31T11:50:47.457Z,26.15
2022-07-31T11:51:47.965Z,26.19
2022-07-31T11:52:49.193Z,26.36
2022-07-31T11:53:58.059Z,26.48
2022-07-31T11:54:49.712Z,26.53
2022-07-31T11:55:50.528Z,26.63
2022-07-31T11:56:51.067Z,26.67
2022-07-31T11:57:57.843Z,26.78
2022-07-31T11:58:51.772Z,26.88
2022-07-31T11:59:55.489Z,26.86
2022-07-31T12:00:52.292Z,26.93
2022-07-31T12:01:52.986Z,27.01
2022-07-31T12:02:53.847Z,27.19
2022-07-31T12:03:54.363Z,27.22
2022-07-31T12:04:54.741Z,27.33
2022-07-31T12:05:55.677Z,27.47
2022-07-31T12:06:56.588Z,27.43
2022-07-31T12:07:56.535Z,27.45
2022-07-31T12:08:58.049Z,27.45
2022-07-31T12:10:09.670Z,27.43
2022-07-31T12:11:08.300Z,27.37
2022-07-31T12:12:09.597Z,27.38
2022-07-31T12:13:16.018Z,27.3
2022-07-31T12:14:10.477Z,27.28
2022-07-31T12:15:11.391Z,27.3
2022-07-31T12:16:11.973Z,27.28
2022-07-31T12:17:15.631Z,27.29
2022-07-31T12:18:12.241Z,27.38
2022-07-31T12:19:12.601Z,27.4
2022-07-31T12:20:13.209Z,27.48
2022-07-31T12:21:13.653Z,27.45
2022-07-31T12:22:14.930Z,27.6
2022-07-31T12:23:47.108Z,27.71
2022-07-31T12:24:15.857Z,27.67
2022-07-31T12:25:17.078Z,27.79
2022-07-31T12:27:18.865Z,27.76
2022-07-31T12:28:18.073Z,27.82
2022-07-31T12:29:18.939Z,27.86
2022-07-31T12:30:18.891Z,27.95
2022-07-31T12:31:19.376Z,27.95
2022-07-31T12:32:20.373Z,28
2022-07-31T12:33:20.312Z,28.08
2022-07-31T12:34:21.818Z,28.06
2022-07-31T12:35:22.034Z,28.12
2022-07-31T12:36:21.788Z,28.06
2022-07-31T12:37:22.995Z,28.19
2022-07-31T12:38:49.147Z,28.33
2022-07-31T12:39:24.443Z,28.37
2022-07-31T12:40:24.705Z,28.43
2022-07-31T12:41:24.934Z,28.38
2022-07-31T12:42:42.272Z,28.46
2022-07-31T12:43:26.508Z,28.45
2022-07-31T12:44:27.557Z,28.37
2022-07-31T12:45:27.790Z,28.5
2022-07-31T12:46:28.398Z,28.5
2022-07-31T12:47:31.829Z,28.55
2022-07-31T12:48:29.338Z,28.62
2022-07-31T12:49:29.894Z,28.62
2022-07-31T12:50:29.735Z,28.67
2022-07-31T12:51:52.168Z,28.8
2022-07-31T12:52:39.946Z,28.9
2022-07-31T12:53:41.198Z,28.93
2022-07-31T12:54:45.465Z,29.07
2022-07-31T12:55:42.396Z,29.07
2022-07-31T12:56:43.514Z,29.02
2022-07-31T12:57:57.245Z,29.02
2022-07-31T12:58:44.175Z,28.9
2022-07-31T12:59:44.678Z,28.93
2022-07-31T13:00:45.986Z,28.83
2022-07-31T13:01:46.564Z,28.68
2022-07-31T13:02:46.967Z,28.65
2022-07-31T13:03:52.166Z,28.46
2022-07-31T13:04:48.666Z,28.43
2022-07-31T13:05:52.632Z,28.53
2022-07-31T13:06:49.870Z,28.59
2022-07-31T13:07:50.212Z,28.62
2022-07-31T13:08:51.444Z,28.77
2022-07-31T13:10:33.047Z,28.68
2022-07-31T13:10:53.543Z,28.72
2022-07-31T13:11:58.414Z,28.65
2022-07-31T13:12:53.820Z,28.68
2022-07-31T13:13:54.326Z,28.7
2022-07-31T13:14:55.262Z,28.7
2022-07-31T13:15:55.479Z,28.59
2022-07-31T13:16:55.687Z,28.52
2022-07-31T13:17:56.929Z,28.53
2022-07-31T13:18:57.436Z,28.55
2022-07-31T13:19:58.078Z,28.56
2022-07-31T13:20:58.913Z,28.52
2022-07-31T13:22:02.545Z,28.46